createdAt,value
2018-06-30T00:02:11.825Z,101813.17
2018-06-30T00:04:45.237Z,101807.87
2018-06-30T00:07:13.284Z,101808.00
2018-06-30T00:09:41.312Z,101811.83
2018-06-30T00:12:09.373Z,101811.95
2018-06-30T00:14:37.414Z,101814.91
2018-06-30T00:17:05.559Z,101813.40
2018-06-30T00:19:33.631Z,101816.94
2018-06-30T00:22:01.695Z,101814.51
2018-06-30T00:24:29.744Z,101812.99
2018-06-30T00:27:03.261Z,101818.51
2018-06-30T00:29:31.666Z,101819.38
2018-06-30T00:31:59.699Z,101817.27
2018-06-30T00:34:27.752Z,101815.34
2018-06-30T00:36:55.780Z,101819.66
2018-06-30T00:39:23.943Z,101820.15
2018-06-30T00:41:51.974Z,101820.97
2018-06-30T00:44:20.292Z,101825.66
2018-06-30T00:46:48.324Z,101827.55
2018-06-30T00:49:17.455Z,101833.41
2018-06-30T00:51:45.580Z,101832.84
2018-06-30T00:54:13.633Z,101836.94
2018-06-30T00:56:41.660Z,101841.41
2018-06-30T00:59:09.712Z,101844.08
2018-06-30T01:01:37.794Z,101841.77
2018-06-30T01:04:05.840Z,101844.47
2018-06-30T01:06:33.892Z,101846.10
2018-06-30T01:09:01.936Z,101847.77
2018-06-30T01:11:30.083Z,101847.06
2018-06-30T01:13:58.140Z,101842.41
2018-06-30T01:16:26.188Z,101846.14
2018-06-30T01:18:54.221Z,101848.02
2018-06-30T01:21:22.256Z,101841.41
2018-06-30T01:23:50.304Z,101853.42
2018-06-30T01:26:18.354Z,101851.47
2018-06-30T01:28:46.384Z,101854.38
2018-06-30T01:31:14.413Z,101853.67
2018-06-30T01:33:42.468Z,101858.55
2018-06-30T01:36:10.508Z,101860.42
2018-06-30T01:38:38.558Z,101862.28
2018-06-30T01:41:06.603Z,101859.96
2018-06-30T01:43:34.685Z,101856.24
2018-06-30T01:46:02.728Z,101854.85
2018-06-30T01:48:30.831Z,101857.64
2018-06-30T01:50:58.900Z,101855.89
2018-06-30T01:53:26.932Z,101858.33
2018-06-30T01:55:54.968Z,101866.48
2018-06-30T01:58:23.016Z,101860.65
2018-06-30T02:00:51.078Z,101863.69
2018-06-30T02:03:19.116Z,101860.53
2018-06-30T02:05:47.150Z,101861.92
2018-06-30T02:08:15.188Z,101858.77
2018-06-30T02:10:43.228Z,101862.48
2018-06-30T02:13:11.252Z,101864.33
2018-06-30T02:15:39.289Z,101863.40
2018-06-30T02:18:07.427Z,101872.22
2018-06-30T02:20:35.470Z,101875.25
2018-06-30T02:23:03.511Z,101876.17
2018-06-30T02:25:31.548Z,101868.00
2018-06-30T02:27:59.589Z,101874.83
2018-06-30T02:30:27.640Z,101873.31
2018-06-30T02:32:55.679Z,101875.62
2018-06-30T02:35:23.723Z,101882.23
2018-06-30T02:37:51.750Z,101882.42
2018-06-30T02:40:19.811Z,101873.25
2018-06-30T02:42:47.843Z,101885.06
2018-06-30T02:45:15.913Z,101889.95
2018-06-30T02:47:43.971Z,101892.58
2018-06-30T02:50:12.017Z,101886.66
2018-06-30T02:52:40.035Z,101895.69
2018-06-30T02:55:08.082Z,101897.17
2018-06-30T02:57:36.110Z,101890.56
2018-06-30T03:00:04.194Z,101898.22
2018-06-30T03:02:32.212Z,101899.93
2018-06-30T03:05:00.248Z,101906.67
2018-06-30T03:07:28.285Z,101901.77
2018-06-30T03:09:56.628Z,101902.38
2018-06-30T03:12:24.668Z,101903.51
2018-06-30T03:14:52.713Z,101906.16
2018-06-30T03:17:20.820Z,101907.91
2018-06-30T03:19:48.868Z,101909.96
2018-06-30T03:22:16.912Z,101913.09
2018-06-30T03:24:44.956Z,101908.19
2018-06-30T03:27:12.988Z,101910.61
2018-06-30T03:29:41.024Z,101909.88
2018-06-30T03:32:09.049Z,101913.59
2018-06-30T03:34:37.118Z,101913.36
2018-06-30T03:37:05.583Z,101911.97
2018-06-30T03:39:33.643Z,101916.02
2018-06-30T03:42:01.678Z,101909.54
2018-06-30T03:44:29.753Z,101913.62
2018-06-30T03:46:57.781Z,101920.50
2018-06-30T03:49:25.820Z,101913.00
2018-06-30T03:51:53.889Z,101914.18
2018-06-30T03:54:21.915Z,101916.17
2018-06-30T03:56:50.059Z,101910.41
2018-06-30T03:59:18.102Z,101917.63
2018-06-30T04:01:46.148Z,101922.45
2018-06-30T04:04:14.180Z,101917.22
2018-06-30T04:06:42.216Z,101920.16
2018-06-30T04:09:12.242Z,101922.35
2018-06-30T04:11:40.292Z,101920.29
2018-06-30T04:14:08.684Z,101920.31
2018-06-30T04:16:36.867Z,101925.92
2018-06-30T04:19:13.140Z,101918.72
2018-06-30T04:21:42.223Z,101924.36
2018-06-30T04:24:10.272Z,101922.98
2018-06-30T04:26:38.568Z,101923.82
2018-06-30T04:29:06.611Z,101929.06
2018-06-30T04:31:34.688Z,101936.09
2018-06-30T04:34:02.745Z,101934.56
2018-06-30T04:36:30.820Z,101937.83
2018-06-30T04:38:58.859Z,101936.80
2018-06-30T04:41:26.898Z,101931.57
2018-06-30T04:43:54.928Z,101934.73
2018-06-30T04:46:22.993Z,101937.53
2018-06-30T04:48:51.020Z,101935.22
2018-06-30T04:51:19.088Z,101941.03
2018-06-30T04:53:47.124Z,101938.36
2018-06-30T04:56:15.316Z,101943.26
2018-06-30T04:58:43.356Z,101942.55
2018-06-30T05:01:11.420Z,101944.20
2018-06-30T05:03:39.459Z,101943.63
2018-06-30T05:06:07.718Z,101940.12
2018-06-30T05:08:35.744Z,101943.75
2018-06-30T05:11:03.827Z,101942.84
2018-06-30T05:13:31.899Z,101938.87
2018-06-30T05:16:00.031Z,101943.30
2018-06-30T05:18:28.242Z,101948.05
2018-06-30T05:20:56.288Z,101948.14
2018-06-30T05:23:24.312Z,101946.88
2018-06-30T05:25:52.415Z,101943.58
2018-06-30T05:28:20.392Z,101942.27
2018-06-30T05:30:48.433Z,101948.28
2018-06-30T05:33:16.476Z,101945.70
2018-06-30T05:35:44.504Z,101943.13
2018-06-30T05:38:12.523Z,101942.43
2018-06-30T05:40:40.568Z,101943.55
2018-06-30T05:43:08.616Z,101943.62
2018-06-30T05:45:36.647Z,101948.85
2018-06-30T05:48:04.684Z,101946.81
2018-06-30T05:50:32.748Z,101958.55
2018-06-30T05:53:00.788Z,101956.38
2018-06-30T05:55:28.861Z,101959.23
2018-06-30T05:57:56.915Z,101957.00
2018-06-30T06:00:24.952Z,101954.16
2018-06-30T06:02:53.036Z,101955.02
2018-06-30T06:05:21.080Z,101958.84
2018-06-30T06:07:49.140Z,101956.30
2018-06-30T06:10:17.276Z,101961.56
2018-06-30T06:12:45.375Z,101963.16
2018-06-30T06:15:13.419Z,101956.67
2018-06-30T06:17:41.427Z,101957.06
2018-06-30T06:20:09.532Z,101962.92
2018-06-30T06:22:37.553Z,101958.66
2018-06-30T06:25:05.808Z,101967.02
2018-06-30T06:27:33.899Z,101962.74
2018-06-30T06:30:01.901Z,101965.03
2018-06-30T06:32:30.067Z,101964.25
2018-06-30T06:34:58.063Z,101961.30
2018-06-30T06:37:26.103Z,101969.23
2018-06-30T06:39:54.141Z,101965.00
2018-06-30T06:42:22.192Z,101959.16
2018-06-30T06:44:50.284Z,101963.29
2018-06-30T06:47:18.364Z,101964.52
2018-06-30T06:49:46.402Z,101964.82
2018-06-30T06:52:14.529Z,101959.16
2018-06-30T06:54:42.579Z,101971.61
2018-06-30T06:57:10.637Z,101965.61
2018-06-30T06:59:38.705Z,101965.08
2018-06-30T07:02:06.788Z,101965.20
2018-06-30T07:04:34.852Z,101967.14
2018-06-30T07:07:03.121Z,101967.85
2018-06-30T07:09:31.190Z,101959.43
2018-06-30T07:11:59.237Z,101968.42
2018-06-30T07:14:27.280Z,101959.31
2018-06-30T07:16:55.325Z,101961.92
2018-06-30T07:19:23.372Z,101957.58
2018-06-30T07:21:51.439Z,101961.12
2018-06-30T07:24:19.503Z,101957.55
2018-06-30T07:26:47.559Z,101956.91
2018-06-30T07:29:15.661Z,101956.64
2018-06-30T07:31:43.700Z,101960.33
2018-06-30T07:34:11.849Z,101959.59
2018-06-30T07:36:39.961Z,101956.63
2018-06-30T07:39:09.584Z,101958.72
2018-06-30T07:41:38.668Z,101967.65
2018-06-30T07:44:06.808Z,101967.10
2018-06-30T07:46:34.920Z,101972.45
2018-06-30T07:49:03.076Z,101963.92
2018-06-30T07:51:31.162Z,101970.09
2018-06-30T07:53:59.460Z,101972.05
2018-06-30T07:56:27.504Z,101972.89
2018-06-30T07:58:55.724Z,101972.20
2018-06-30T08:01:23.929Z,101967.25
2018-06-30T08:03:52.205Z,101969.31
2018-06-30T08:06:20.404Z,101969.23
2018-06-30T08:08:48.512Z,101967.65
2018-06-30T08:11:16.557Z,101970.95
2018-06-30T08:13:44.644Z,101975.39
2018-06-30T08:16:12.680Z,101974.98
2018-06-30T08:18:40.844Z,101977.38
2018-06-30T08:21:08.918Z,101977.14
2018-06-30T08:23:37.111Z,101971.44
2018-06-30T08:26:05.258Z,101971.00
2018-06-30T08:28:33.334Z,101974.52
2018-06-30T08:31:01.421Z,101972.23
2018-06-30T08:33:29.517Z,101978.22
2018-06-30T08:35:57.629Z,101981.02
2018-06-30T08:38:25.914Z,101972.45
2018-06-30T08:40:53.956Z,101980.50
2018-06-30T08:43:22.024Z,101978.66
2018-06-30T08:45:50.087Z,101977.69
2018-06-30T08:48:18.131Z,101975.97
2018-06-30T08:50:46.369Z,101978.97
2018-06-30T08:53:14.445Z,101976.02
2018-06-30T08:55:42.502Z,101977.72
2018-06-30T08:58:10.551Z,101972.81
2018-06-30T09:00:38.689Z,101974.12
2018-06-30T09:03:06.716Z,101966.47
2018-06-30T09:05:34.778Z,101970.55
2018-06-30T09:08:02.868Z,101963.27
2018-06-30T09:10:30.925Z,101961.81
2018-06-30T09:12:58.965Z,101967.41
2018-06-30T09:15:27.060Z,101971.68
2018-06-30T09:17:55.110Z,101962.84
2018-06-30T09:20:23.199Z,101966.78
2018-06-30T09:22:51.268Z,101970.48
2018-06-30T09:25:19.308Z,101969.77
2018-06-30T09:27:47.422Z,101970.23
2018-06-30T09:30:15.500Z,101968.80
2018-06-30T09:32:43.562Z,101967.39
2018-06-30T09:35:11.633Z,101972.28
2018-06-30T09:37:39.700Z,101970.22
2018-06-30T09:40:07.772Z,101976.39
2018-06-30T09:42:35.829Z,101967.55
2018-06-30T09:45:03.899Z,101962.37
2018-06-30T09:47:31.969Z,101971.66
2018-06-30T09:50:00.243Z,101967.48
2018-06-30T09:52:28.313Z,101965.25
2018-06-30T09:54:56.378Z,101965.12
2018-06-30T09:57:24.461Z,101967.06
2018-06-30T09:59:52.510Z,101962.09
2018-06-30T10:02:20.586Z,101970.86
2018-06-30T10:04:48.678Z,101958.74
2018-06-30T10:07:16.715Z,101960.20
2018-06-30T10:09:44.811Z,101954.15
2018-06-30T10:12:12.931Z,101951.59
2018-06-30T10:14:41.054Z,101953.67
2018-06-30T10:17:09.115Z,101952.23
2018-06-30T10:19:37.198Z,101945.91
2018-06-30T10:22:05.264Z,101957.34
2018-06-30T10:24:33.320Z,101956.43
2018-06-30T10:27:01.424Z,101967.33
2018-06-30T10:29:29.464Z,101966.58
2018-06-30T10:31:57.535Z,101964.45
2018-06-30T10:34:25.604Z,101955.14
2018-06-30T10:36:53.740Z,101949.11
2018-06-30T10:39:21.853Z,101954.98
2018-06-30T10:41:49.888Z,101953.03
2018-06-30T10:44:17.992Z,101954.35
2018-06-30T10:46:46.036Z,101947.29
2018-06-30T10:49:14.096Z,101940.14
2018-06-30T10:51:42.205Z,101943.03
2018-06-30T10:54:10.269Z,101936.47
2018-06-30T10:56:38.375Z,101944.16
2018-06-30T10:59:06.420Z,101938.92
2018-06-30T11:01:34.482Z,101945.20
2018-06-30T11:04:02.589Z,101944.38
2018-06-30T11:06:30.605Z,101941.61
2018-06-30T11:08:58.653Z,101943.91
2018-06-30T11:11:26.873Z,101930.98
2018-06-30T11:13:54.930Z,101929.49
2018-06-30T11:16:23.024Z,101932.12
2018-06-30T11:18:51.073Z,101923.70
2018-06-30T11:21:19.115Z,101930.34
2018-06-30T11:23:47.151Z,101921.86
2018-06-30T11:26:15.204Z,101920.06
2018-06-30T11:28:44.259Z,101922.77
2018-06-30T11:31:12.356Z,101921.86
2018-06-30T11:33:40.407Z,101922.53
2018-06-30T11:36:08.460Z,101920.60
2018-06-30T11:38:36.556Z,101917.49
2018-06-30T11:41:04.606Z,101924.46
2018-06-30T11:43:32.660Z,101925.16
2018-06-30T11:46:00.777Z,101923.84
2018-06-30T11:48:28.852Z,101918.01
2018-06-30T11:50:56.932Z,101909.84
2018-06-30T11:53:24.972Z,101908.33
2018-06-30T11:55:53.056Z,101907.11
2018-06-30T11:58:21.136Z,101908.06
2018-06-30T12:00:49.204Z,101904.95
2018-06-30T12:03:17.256Z,101897.96
2018-06-30T12:05:45.298Z,101894.22
2018-06-30T12:08:13.400Z,101892.27
2018-06-30T12:10:41.446Z,101887.49
2018-06-30T12:13:09.500Z,101893.75
2018-06-30T12:15:37.612Z,101887.14
2018-06-30T12:18:05.688Z,101882.02
2018-06-30T12:20:33.748Z,101887.33
2018-06-30T12:23:02.015Z,101884.28
2018-06-30T12:25:30.128Z,101884.47
2018-06-30T12:27:58.207Z,101892.02
2018-06-30T12:30:26.245Z,101894.81
2018-06-30T12:32:54.408Z,101881.52
2018-06-30T12:35:22.525Z,101886.16
2018-06-30T12:37:50.574Z,101878.05
2018-06-30T12:40:18.632Z,101875.93
2018-06-30T12:42:46.700Z,101874.08
2018-06-30T12:45:14.784Z,101875.32
2018-06-30T12:47:42.828Z,101873.35
2018-06-30T12:50:10.897Z,101873.66
2018-06-30T12:52:39.076Z,101878.30
2018-06-30T12:55:07.116Z,101882.67
2018-06-30T12:57:35.178Z,101874.50
2018-06-30T13:00:03.241Z,101876.48
2018-06-30T13:02:31.309Z,101866.84
2018-06-30T13:04:59.348Z,101856.34
2018-06-30T13:07:27.408Z,101862.09
2018-06-30T13:09:55.449Z,101865.15
2018-06-30T13:12:23.488Z,101851.78
2018-06-30T13:14:51.539Z,101850.48
2018-06-30T13:17:19.576Z,101852.83
2018-06-30T13:19:47.652Z,101859.30
2018-06-30T13:22:15.720Z,101858.11
2018-06-30T13:24:43.767Z,101863.33
2018-06-30T13:27:11.836Z,101857.25
2018-06-30T13:29:39.876Z,101858.17
2018-06-30T13:32:07.941Z,101863.87
2018-06-30T13:34:36.021Z,101859.02
2018-06-30T13:37:04.124Z,101862.87
2018-06-30T13:39:32.376Z,101860.56
2018-06-30T13:42:00.432Z,101859.30
2018-06-30T13:44:28.639Z,101862.80
2018-06-30T13:46:56.712Z,101857.07
2018-06-30T13:49:24.748Z,101860.94
2018-06-30T13:51:52.917Z,101858.48
2018-06-30T13:54:21.117Z,101860.11
2018-06-30T13:56:49.198Z,101856.64
2018-06-30T13:59:17.232Z,101854.38
2018-06-30T14:01:45.301Z,101848.09
2018-06-30T14:04:13.347Z,101840.83
2018-06-30T14:06:41.487Z,101844.70
2018-06-30T14:09:10.892Z,101843.66
2018-06-30T14:11:39.004Z,101842.42
2018-06-30T14:14:07.212Z,101848.42
2018-06-30T14:16:35.256Z,101847.56
2018-06-30T14:19:03.301Z,101845.91
2018-06-30T14:21:31.344Z,101846.80
2018-06-30T14:23:59.588Z,101846.36
2018-06-30T14:26:27.796Z,101840.38
2018-06-30T14:28:56.236Z,101840.84
2018-06-30T14:31:24.376Z,101841.45
2018-06-30T14:33:52.429Z,101831.30
2018-06-30T14:36:20.561Z,101830.12
2018-06-30T14:38:48.646Z,101820.64
2018-06-30T14:41:16.707Z,101823.87
2018-06-30T14:43:44.871Z,101817.54
2018-06-30T14:46:13.080Z,101818.97
2018-06-30T14:48:41.154Z,101820.02
2018-06-30T14:51:09.200Z,101817.97
2018-06-30T14:53:37.461Z,101829.84
2018-06-30T14:56:05.540Z,101836.36
2018-06-30T14:58:33.596Z,101828.58
2018-06-30T15:01:01.636Z,101832.54
2018-06-30T15:03:29.687Z,101816.64
2018-06-30T15:05:57.740Z,101822.53
2018-06-30T15:08:25.793Z,101823.63
2018-06-30T15:10:53.877Z,101815.22
2018-06-30T15:13:21.929Z,101817.88
2018-06-30T15:15:49.988Z,101826.59
2018-06-30T15:18:18.261Z,101818.91
2018-06-30T15:20:46.330Z,101816.17
2018-06-30T15:23:14.393Z,101815.58
2018-06-30T15:25:42.443Z,101808.12
2018-06-30T15:28:10.552Z,101797.75
2018-06-30T15:30:38.621Z,101802.78
2018-06-30T15:33:06.699Z,101802.08
2018-06-30T15:35:34.755Z,101798.95
2018-06-30T15:38:02.796Z,101803.39
2018-06-30T15:40:30.891Z,101799.87
2018-06-30T15:42:58.971Z,101805.27
2018-06-30T15:45:27.040Z,101804.26
2018-06-30T15:47:55.132Z,101803.93
2018-06-30T15:50:23.167Z,101799.84
2018-06-30T15:52:51.247Z,101793.36
2018-06-30T15:55:19.315Z,101789.65
2018-06-30T15:57:47.397Z,101787.84
2018-06-30T16:00:15.513Z,101794.62
2018-06-30T16:02:43.568Z,101791.81
2018-06-30T16:05:11.613Z,101791.95
2018-06-30T16:07:39.672Z,101796.27
2018-06-30T16:10:07.820Z,101793.22
2018-06-30T16:12:35.884Z,101790.47
2018-06-30T16:15:03.952Z,101785.05
2018-06-30T16:17:32.062Z,101784.37
2018-06-30T16:20:00.109Z,101792.67
2018-06-30T16:22:28.184Z,101791.80
2018-06-30T16:24:56.276Z,101787.45
2018-06-30T16:27:24.373Z,101786.47
2018-06-30T16:29:52.419Z,101784.00
2018-06-30T16:32:20.475Z,101786.98
2018-06-30T16:34:48.539Z,101790.38
2018-06-30T16:37:16.607Z,101786.50
2018-06-30T16:39:44.775Z,101790.70
2018-06-30T16:42:12.857Z,101787.90
2018-06-30T16:44:40.915Z,101787.90
2018-06-30T16:47:08.960Z,101787.68
2018-06-30T16:49:37.069Z,101781.42
2018-06-30T16:52:05.136Z,101783.98
2018-06-30T16:54:33.195Z,101785.09
2018-06-30T16:57:01.236Z,101783.77
2018-06-30T16:59:29.337Z,101784.16
2018-06-30T17:01:57.407Z,101786.14
2018-06-30T17:04:25.510Z,101791.89
2018-06-30T17:06:53.541Z,101789.63
2018-06-30T17:09:21.680Z,101789.31
2018-06-30T17:11:49.807Z,101789.75
2018-06-30T17:14:17.868Z,101787.55
2018-06-30T17:16:45.923Z,101787.77
2018-06-30T17:19:14.009Z,101790.03
2018-06-30T17:21:42.193Z,101787.03
2018-06-30T17:24:10.246Z,101783.81
2018-06-30T17:26:38.309Z,101787.88
2018-06-30T17:29:06.477Z,101785.47
2018-06-30T17:31:34.555Z,101793.02
2018-06-30T17:34:02.649Z,101796.91
2018-06-30T17:36:30.723Z,101784.58
2018-06-30T17:38:58.783Z,101791.12
2018-06-30T17:41:26.953Z,101800.89
2018-06-30T17:43:55.440Z,101799.52
2018-06-30T17:46:23.496Z,101793.48
2018-06-30T17:48:51.549Z,101797.34
2018-06-30T17:51:19.636Z,101798.55
2018-06-30T17:53:47.705Z,101807.25
2018-06-30T17:56:15.765Z,101805.88
2018-06-30T17:58:43.836Z,101806.70
2018-06-30T18:01:11.881Z,101805.94
2018-06-30T18:03:39.983Z,101808.39
2018-06-30T18:06:07.980Z,101808.23
2018-06-30T18:08:36.037Z,101806.21
2018-06-30T18:11:04.096Z,101810.66
2018-06-30T18:13:32.164Z,101809.06
2018-06-30T18:16:00.222Z,101807.41
2018-06-30T18:18:28.345Z,101815.72
2018-06-30T18:20:56.465Z,101809.84
2018-06-30T18:23:24.548Z,101816.91
2018-06-30T18:25:52.605Z,101820.14
2018-06-30T18:28:20.649Z,101819.74
2018-06-30T18:30:48.712Z,101820.14
2018-06-30T18:33:16.800Z,101823.77
2018-06-30T18:35:44.896Z,101820.95
2018-06-30T18:38:12.966Z,101827.62
2018-06-30T18:40:41.035Z,101827.02
2018-06-30T18:43:09.093Z,101832.88
2018-06-30T18:45:37.172Z,101829.87
2018-06-30T18:48:05.241Z,101834.73
2018-06-30T18:50:33.303Z,101834.13
2018-06-30T18:53:01.385Z,101833.11
2018-06-30T18:55:29.442Z,101836.13
2018-06-30T18:57:57.504Z,101835.53
2018-06-30T19:00:25.700Z,101833.92
2018-06-30T19:02:53.768Z,101836.16
2018-06-30T19:05:21.860Z,101841.19
2018-06-30T19:07:49.933Z,101842.40
2018-06-30T19:10:18.003Z,101841.00
2018-06-30T19:12:46.042Z,101845.22
2018-06-30T19:15:14.133Z,101851.28
2018-06-30T19:17:42.205Z,101852.88
2018-06-30T19:20:10.268Z,101853.83
2018-06-30T19:22:38.333Z,101861.44
2018-06-30T19:25:06.483Z,101862.17
2018-06-30T19:27:34.536Z,101865.27
2018-06-30T19:30:02.631Z,101866.17
2018-06-30T19:32:30.698Z,101864.67
2018-06-30T19:34:58.772Z,101872.05
2018-06-30T19:37:26.833Z,101868.20
2018-06-30T19:39:54.880Z,101873.84
2018-06-30T19:42:23.012Z,101872.19
2018-06-30T19:44:51.045Z,101873.53
2018-06-30T19:47:19.152Z,101869.47
2018-06-30T19:49:47.225Z,101878.70
2018-06-30T19:52:15.317Z,101879.91
2018-06-30T19:54:43.535Z,101880.11
2018-06-30T19:57:11.614Z,101886.97
2018-06-30T19:59:39.661Z,101888.97
2018-06-30T20:02:07.738Z,101892.30
2018-06-30T20:04:35.799Z,101897.91
2018-06-30T20:07:03.907Z,101899.89
2018-06-30T20:09:31.960Z,101893.59
2018-06-30T20:12:00.066Z,101896.95
2018-06-30T20:14:28.137Z,101898.47
2018-06-30T20:16:56.225Z,101895.14
2018-06-30T20:19:24.291Z,101896.03
2018-06-30T20:21:52.380Z,101897.29
2018-06-30T20:24:20.450Z,101906.03
2018-06-30T20:26:48.576Z,101904.06
2018-06-30T20:29:16.649Z,101907.13
2018-06-30T20:31:44.744Z,101909.40
2018-06-30T20:34:12.818Z,101908.23
2018-06-30T20:36:40.916Z,101904.20
2018-06-30T20:39:10.027Z,101906.42
2018-06-30T20:41:38.614Z,101905.44
2018-06-30T20:44:07.800Z,101902.84
2018-06-30T20:46:35.880Z,101910.89
2018-06-30T20:49:03.916Z,101907.91
2018-06-30T20:51:31.979Z,101907.52
2018-06-30T20:54:00.022Z,101906.73
2018-06-30T20:56:28.112Z,101905.92
2018-06-30T20:58:56.143Z,101911.92
2018-06-30T21:01:24.289Z,101911.95
2018-06-30T21:03:52.267Z,101911.97
2018-06-30T21:06:20.372Z,101921.58
2018-06-30T21:08:48.425Z,101912.56
2018-06-30T21:11:16.469Z,101911.98
2018-06-30T21:13:44.508Z,101913.02
2018-06-30T21:16:12.551Z,101913.20
2018-06-30T21:18:40.604Z,101915.05
2018-06-30T21:21:08.645Z,101915.84
2018-06-30T21:23:36.688Z,101916.66
2018-06-30T21:26:04.899Z,101918.05
2018-06-30T21:28:32.944Z,101913.45
2018-06-30T21:31:00.995Z,101914.09
2018-06-30T21:33:29.055Z,101920.34
2018-06-30T21:35:57.109Z,101916.77
2018-06-30T21:38:25.160Z,101921.98
2018-06-30T21:40:53.204Z,101926.61
2018-06-30T21:45:55.632Z,101933.81
2018-06-30T21:48:23.867Z,101931.42
2018-06-30T21:50:51.909Z,101931.47
2018-06-30T21:53:19.956Z,101933.27
2018-06-30T21:55:48.005Z,101940.77
2018-06-30T21:58:16.067Z,101934.02
2018-06-30T22:00:50.423Z,101933.69
2018-06-30T22:03:20.166Z,101930.84
2018-06-30T22:05:48.229Z,101939.52
2018-06-30T22:08:16.280Z,101938.94
2018-06-30T22:10:44.388Z,101938.39
2018-06-30T22:13:12.383Z,101938.30
2018-06-30T22:15:40.417Z,101942.89
2018-06-30T22:18:08.480Z,101944.77
2018-06-30T22:20:36.949Z,101943.86
2018-06-30T22:23:05.095Z,101943.39
2018-06-30T22:25:33.619Z,101945.84
2018-06-30T22:28:01.895Z,101941.55
2018-06-30T22:30:29.933Z,101941.42
2018-06-30T22:32:57.988Z,101942.15
2018-06-30T22:35:26.017Z,101947.64
2018-06-30T22:37:54.143Z,101950.92
2018-06-30T22:40:22.181Z,101944.98
2018-06-30T22:42:50.228Z,101946.28
2018-06-30T22:45:18.260Z,101948.61
2018-06-30T22:47:46.872Z,101945.36
2018-06-30T22:50:15.532Z,101951.28
2018-06-30T22:52:43.589Z,101952.00
2018-06-30T22:55:11.637Z,101951.53
2018-06-30T22:57:39.725Z,101952.22
2018-06-30T23:00:09.666Z,101959.69
2018-06-30T23:02:37.798Z,101960.41
2018-06-30T23:05:05.868Z,101959.12
2018-06-30T23:07:33.981Z,101949.56
2018-06-30T23:10:02.061Z,101959.23
2018-06-30T23:12:30.093Z,101970.06
2018-06-30T23:14:58.397Z,101962.39
2018-06-30T23:17:26.438Z,101968.45
2018-06-30T23:19:54.476Z,101973.93
2018-06-30T23:23:02.105Z,101972.86
2018-06-30T23:25:31.322Z,101970.64
2018-06-30T23:27:59.805Z,101968.63
2018-06-30T23:30:28.479Z,101975.86
2018-06-30T23:32:56.540Z,101974.67
2018-06-30T23:35:25.657Z,101974.81
2018-06-30T23:37:54.541Z,101975.84
2018-06-30T23:40:22.621Z,101977.34
2018-06-30T23:42:50.660Z,101979.09
2018-06-30T23:45:19.171Z,101981.98
2018-06-30T23:47:47.236Z,101988.03
2018-06-30T23:50:15.293Z,101981.86
2018-06-30T23:52:43.339Z,101989.30
2018-06-30T23:55:11.389Z,101990.67
2018-06-30T23:57:39.991Z,101990.19
